createdAt,value
2018-12-20T00:01:20.769Z,33.50
2018-12-20T00:03:48.292Z,29.27
2018-12-20T00:06:15.790Z,26.03
2018-12-20T00:08:43.421Z,29.23
2018-12-20T00:11:11.109Z,28.27
2018-12-20T00:13:38.781Z,27.00
2018-12-20T00:16:06.517Z,32.30
2018-12-20T00:18:34.159Z,28.17
2018-12-20T00:21:01.666Z,38.17
2018-12-20T00:23:29.180Z,30.23
2018-12-20T00:25:56.745Z,36.20
2018-12-20T00:28:24.243Z,37.03
2018-12-20T00:30:51.977Z,34.50
2018-12-20T00:33:19.612Z,30.27
2018-12-20T00:35:47.180Z,28.73
2018-12-20T00:38:14.914Z,32.80
2018-12-20T00:40:42.620Z,28.43
2018-12-20T00:43:10.480Z,29.20
2018-12-20T00:45:38.184Z,28.50
2018-12-20T00:48:05.861Z,28.40
2018-12-20T00:50:33.477Z,26.40
2018-12-20T00:53:01.132Z,30.80
2018-12-20T00:55:28.694Z,31.47
2018-12-20T00:57:56.313Z,29.33
2018-12-20T01:00:24.135Z,32.43
2018-12-20T01:02:55.231Z,28.67
2018-12-20T01:05:21.325Z,35.60
2018-12-20T01:07:49.157Z,28.87
2018-12-20T01:10:16.817Z,28.70
2018-12-20T01:12:44.346Z,29.63
2018-12-20T01:15:11.851Z,35.00
2018-12-20T01:17:39.414Z,30.87
2018-12-20T01:20:08.860Z,25.37
2018-12-20T01:22:36.621Z,35.10
2018-12-20T01:25:04.947Z,31.23
2018-12-20T01:27:32.572Z,30.57
2018-12-20T01:30:00.176Z,38.73
2018-12-20T01:32:27.730Z,35.43
2018-12-20T01:34:55.329Z,35.70
2018-12-20T01:37:22.863Z,37.10
2018-12-20T01:39:50.621Z,26.03
2018-12-20T01:42:18.311Z,33.50
2018-12-20T01:44:53.297Z,33.00
2018-12-20T01:47:15.555Z,31.93
2018-12-20T01:49:43.420Z,32.93
2018-12-20T01:52:11.046Z,36.33
2018-12-20T01:54:38.662Z,31.93
2018-12-20T01:57:06.466Z,34.73
2018-12-20T01:59:34.141Z,31.90
2018-12-20T02:02:02.293Z,28.97
2018-12-20T02:04:29.897Z,29.77
2018-12-20T02:06:57.704Z,31.13
2018-12-20T02:09:25.489Z,29.10
2018-12-20T02:11:53.123Z,33.83
2018-12-20T02:14:20.794Z,37.87
2018-12-20T02:16:48.415Z,31.13
2018-12-20T02:19:15.971Z,31.37
2018-12-20T02:21:43.933Z,38.07
2018-12-20T02:24:11.721Z,43.93
2018-12-20T02:26:39.302Z,37.77
2018-12-20T02:29:07.062Z,34.53
2018-12-20T02:31:34.678Z,33.97
2018-12-20T02:34:02.236Z,37.27
2018-12-20T02:36:29.852Z,40.87
2018-12-20T02:38:57.486Z,37.47
2018-12-20T02:41:25.129Z,31.30
2018-12-20T02:43:52.920Z,36.87
2018-12-20T02:46:20.873Z,36.80
2018-12-20T02:48:48.457Z,36.23
2018-12-20T02:51:16.277Z,42.30
2018-12-20T02:53:43.935Z,32.53
2018-12-20T02:56:11.459Z,36.50
2018-12-20T02:58:39.168Z,37.67
2018-12-20T03:01:18.139Z,35.63
2018-12-20T03:03:46.207Z,36.63
2018-12-20T03:06:14.169Z,30.93
2018-12-20T03:08:42.493Z,35.30
2018-12-20T03:11:10.269Z,33.17
2018-12-20T03:13:38.207Z,30.60
2018-12-20T03:16:05.864Z,37.13
2018-12-20T03:18:33.490Z,36.30
2018-12-20T03:21:01.054Z,39.93
2018-12-20T03:23:28.915Z,36.40
2018-12-20T03:25:56.562Z,33.73
2018-12-20T03:28:24.322Z,35.63
2018-12-20T03:30:52.468Z,40.97
2018-12-20T03:33:20.118Z,36.83
2018-12-20T03:35:47.925Z,36.00
2018-12-20T03:38:15.572Z,29.77
2018-12-20T03:40:43.318Z,37.97
2018-12-20T03:43:11.009Z,47.13
2018-12-20T03:45:39.537Z,42.07
2018-12-20T03:48:07.180Z,40.73
2018-12-20T03:50:34.709Z,36.40
2018-12-20T03:53:02.344Z,38.00
2018-12-20T03:55:30.410Z,33.53
2018-12-20T03:57:58.465Z,42.00
2018-12-20T04:00:26.359Z,35.33
2018-12-20T04:02:54.219Z,40.67
2018-12-20T04:05:21.883Z,30.63
2018-12-20T04:07:49.535Z,37.37
2018-12-20T04:10:17.329Z,34.67
2018-12-20T04:12:45.005Z,32.23
2018-12-20T04:15:12.516Z,35.10
2018-12-20T04:17:40.057Z,35.13
2018-12-20T04:20:07.750Z,39.50
2018-12-20T04:22:35.733Z,36.00
2018-12-20T04:25:03.462Z,37.53
2018-12-20T04:27:31.011Z,34.50
2018-12-20T04:29:58.573Z,38.47
2018-12-20T04:32:26.131Z,39.20
2018-12-20T04:34:53.878Z,47.30
2018-12-20T04:37:21.733Z,33.73
2018-12-20T04:39:49.627Z,42.90
2018-12-20T04:42:17.392Z,45.90
2018-12-20T04:44:45.168Z,35.23
2018-12-20T04:47:12.941Z,32.67
2018-12-20T04:49:40.646Z,36.33
2018-12-20T04:52:08.431Z,32.53
2018-12-20T04:54:35.988Z,42.63
2018-12-20T04:57:03.543Z,42.53
2018-12-20T04:59:31.058Z,36.67
2018-12-20T05:01:58.680Z,36.23
2018-12-20T05:04:26.365Z,35.17
2018-12-20T05:06:53.917Z,36.97
2018-12-20T05:09:21.521Z,39.67
2018-12-20T05:11:49.066Z,36.83
2018-12-20T05:14:16.665Z,34.20
2018-12-20T05:16:44.240Z,35.03
2018-12-20T05:19:11.824Z,34.23
2018-12-20T05:21:39.667Z,40.07
2018-12-20T05:24:07.359Z,39.53
2018-12-20T05:26:34.891Z,38.63
2018-12-20T05:29:02.490Z,36.63
2018-12-20T05:31:30.040Z,42.13
2018-12-20T05:33:57.682Z,41.90
2018-12-20T05:36:25.413Z,34.57
2018-12-20T05:38:53.015Z,35.83
2018-12-20T05:41:20.522Z,50.07
2018-12-20T05:43:48.303Z,37.10
2018-12-20T05:46:16.278Z,36.37
2018-12-20T05:48:44.128Z,35.80
2018-12-20T05:51:11.851Z,34.73
2018-12-20T05:53:39.438Z,49.13
2018-12-20T05:56:07.098Z,42.10
2018-12-20T05:58:34.628Z,38.27
2018-12-20T06:01:02.328Z,38.70
2018-12-20T06:03:30.235Z,41.27
2018-12-20T06:05:57.818Z,34.77
2018-12-20T06:08:25.373Z,32.27
2018-12-20T06:10:53.958Z,38.90
2018-12-20T06:13:21.722Z,33.40
2018-12-20T06:15:50.273Z,31.50
2018-12-20T06:18:18.086Z,33.93
2018-12-20T06:20:45.741Z,40.67
2018-12-20T06:23:13.315Z,36.60
2018-12-20T06:25:40.835Z,33.27
2018-12-20T06:28:08.343Z,36.87
2018-12-20T06:30:35.851Z,39.13
2018-12-20T06:33:03.362Z,44.40
2018-12-20T06:35:30.904Z,37.67
2018-12-20T06:37:58.413Z,35.03
2018-12-20T06:40:25.980Z,47.33
2018-12-20T06:42:54.185Z,30.10
2018-12-20T06:45:21.751Z,38.80
2018-12-20T06:47:49.306Z,40.60
2018-12-20T06:50:16.871Z,31.00
2018-12-20T06:52:44.365Z,38.53
2018-12-20T06:55:11.991Z,40.10
2018-12-20T06:57:39.491Z,40.37
2018-12-20T07:00:08.848Z,36.17
2018-12-20T07:02:38.499Z,35.63
2018-12-20T07:05:06.165Z,33.27
2018-12-20T07:07:33.698Z,35.97
2018-12-20T07:10:01.255Z,40.37
2018-12-20T07:12:28.769Z,31.80
2018-12-20T07:14:56.356Z,38.93
2018-12-20T07:17:23.854Z,39.77
2018-12-20T07:19:51.482Z,40.50
2018-12-20T07:22:18.983Z,38.33
2018-12-20T07:24:46.528Z,36.63
2018-12-20T07:27:14.627Z,40.57
2018-12-20T07:29:42.130Z,38.73
2018-12-20T07:32:09.792Z,29.83
2018-12-20T07:34:37.389Z,31.93
2018-12-20T07:37:05.122Z,36.10
2018-12-20T07:39:32.670Z,32.20
2018-12-20T07:42:00.210Z,34.57
2018-12-20T07:44:27.802Z,43.60
2018-12-20T07:46:55.299Z,34.60
2018-12-20T07:49:22.815Z,39.73
2018-12-20T07:51:50.474Z,36.10
2018-12-20T07:54:18.005Z,37.00
2018-12-20T07:56:45.560Z,37.17
2018-12-20T07:59:13.263Z,40.13
2018-12-20T08:01:40.757Z,41.20
2018-12-20T08:04:08.275Z,42.07
2018-12-20T08:06:35.839Z,38.90
2018-12-20T08:09:04.623Z,32.37
2018-12-20T08:11:32.143Z,35.13
2018-12-20T08:13:59.874Z,37.70
2018-12-20T08:16:27.373Z,40.13
2018-12-20T08:18:54.965Z,31.20
2018-12-20T08:21:22.540Z,38.47
2018-12-20T08:23:50.086Z,33.67
2018-12-20T08:26:17.646Z,39.40
2018-12-20T08:28:45.152Z,34.57
2018-12-20T08:31:12.773Z,32.90
2018-12-20T08:33:40.276Z,31.23
2018-12-20T08:36:07.825Z,35.97
2018-12-20T08:38:35.343Z,36.77
2018-12-20T08:41:03.006Z,33.57
2018-12-20T08:43:30.565Z,35.90
2018-12-20T08:45:58.191Z,31.63
2018-12-20T08:48:25.730Z,29.93
2018-12-20T08:50:53.351Z,32.70
2018-12-20T08:53:20.912Z,32.17
2018-12-20T08:55:48.470Z,31.47
2018-12-20T08:58:16.130Z,37.33
2018-12-20T09:00:43.690Z,30.37
2018-12-20T09:03:11.251Z,29.17
2018-12-20T09:05:38.791Z,29.90
2018-12-20T09:08:06.382Z,29.70
2018-12-20T09:10:34.036Z,33.27
2018-12-20T09:13:09.348Z,37.27
2018-12-20T09:15:31.130Z,32.20
2018-12-20T09:17:58.656Z,36.00
2018-12-20T09:20:32.655Z,35.20
2018-12-20T09:22:55.836Z,29.83
2018-12-20T09:25:23.390Z,36.37
2018-12-20T09:27:50.949Z,29.43
2018-12-20T09:30:18.452Z,32.53
2018-12-20T09:32:45.966Z,37.03
2018-12-20T09:35:13.499Z,34.17
2018-12-20T09:37:41.043Z,32.90
2018-12-20T09:40:08.760Z,33.10
2018-12-20T09:42:36.261Z,37.63
2018-12-20T09:45:04.286Z,30.43
2018-12-20T09:50:32.372Z,37.63
2018-12-20T09:52:59.949Z,33.33
2018-12-20T09:55:27.468Z,38.03
2018-12-20T09:57:54.965Z,33.50
2018-12-20T10:00:22.484Z,35.53
2018-12-20T10:02:50.076Z,31.83
2018-12-20T10:05:17.585Z,28.83
2018-12-20T10:07:45.125Z,30.20
2018-12-20T10:10:12.757Z,33.70
2018-12-20T10:12:40.272Z,28.93
2018-12-20T10:15:07.887Z,33.90
2018-12-20T10:17:35.430Z,34.60
2018-12-20T10:20:03.100Z,39.03
2018-12-20T10:22:30.655Z,30.20
2018-12-20T10:24:58.211Z,34.87
2018-12-20T10:27:31.349Z,26.90
2018-12-20T10:29:55.377Z,31.27
2018-12-20T10:32:22.938Z,31.07
2018-12-20T10:34:50.432Z,29.43
2018-12-20T10:37:17.935Z,26.87
2018-12-20T10:39:45.464Z,34.20
2018-12-20T10:42:13.076Z,35.77
2018-12-20T10:44:40.639Z,31.37
2018-12-20T10:47:13.697Z,31.47
2018-12-20T10:49:41.286Z,29.80
2018-12-20T10:52:08.846Z,28.47
2018-12-20T10:54:36.363Z,29.37
2018-12-20T10:57:04.040Z,34.47
2018-12-20T10:59:32.177Z,31.07
2018-12-20T11:02:05.409Z,30.20
2018-12-20T11:04:34.944Z,27.50
2018-12-20T11:07:08.129Z,32.40
2018-12-20T11:09:41.188Z,31.27
2018-12-20T11:12:09.028Z,32.27
2018-12-20T11:14:36.573Z,31.60
2018-12-20T11:17:04.165Z,30.67
2018-12-20T11:19:31.784Z,29.30
2018-12-20T11:21:59.287Z,32.13
2018-12-20T11:24:27.230Z,31.47
2018-12-20T11:26:54.774Z,26.07
2018-12-20T11:29:22.273Z,30.60
2018-12-20T11:31:49.818Z,33.87
2018-12-20T11:34:17.342Z,32.03
2018-12-20T11:36:45.557Z,29.30
2018-12-20T11:39:13.198Z,29.17
2018-12-20T11:41:40.834Z,32.90
2018-12-20T11:44:08.412Z,30.37
2018-12-20T11:46:35.959Z,30.20
2018-12-20T11:49:03.522Z,27.40
2018-12-20T11:51:31.077Z,30.60
2018-12-20T11:53:58.642Z,29.40
2018-12-20T11:56:26.556Z,22.80
2018-12-20T11:58:54.064Z,27.93
2018-12-20T12:01:21.658Z,26.47
2018-12-20T12:03:57.198Z,32.37
2018-12-20T12:06:18.917Z,29.47
2018-12-20T12:08:46.455Z,31.37
2018-12-20T12:11:13.976Z,29.67
2018-12-20T12:13:41.510Z,28.97
2018-12-20T12:16:09.135Z,31.80
2018-12-20T12:18:36.649Z,23.63
2018-12-20T12:21:04.697Z,25.03
2018-12-20T12:23:32.651Z,36.13
2018-12-20T12:26:00.199Z,26.43
2018-12-20T12:28:27.753Z,26.07
2018-12-20T12:30:55.245Z,24.50
2018-12-20T12:33:22.766Z,32.20
2018-12-20T12:35:50.329Z,27.87
2018-12-20T12:38:17.839Z,27.23
2018-12-20T12:40:45.472Z,29.87
2018-12-20T12:43:13.012Z,26.30
2018-12-20T12:45:40.589Z,26.17
2018-12-20T12:48:08.238Z,27.73
2018-12-20T12:50:35.792Z,24.63
2018-12-20T12:53:03.359Z,31.33
2018-12-20T12:55:30.917Z,24.37
2018-12-20T12:58:04.571Z,26.23
2018-12-20T13:00:28.056Z,23.63
2018-12-20T13:02:55.576Z,22.57
2018-12-20T13:05:23.202Z,20.97
2018-12-20T13:07:50.760Z,30.60
2018-12-20T13:10:18.421Z,23.23
2018-12-20T13:12:45.921Z,27.43
2018-12-20T13:15:13.526Z,23.07
2018-12-20T13:17:41.038Z,29.27
2018-12-20T13:20:09.518Z,19.37
2018-12-20T13:22:37.084Z,30.97
2018-12-20T13:25:05.328Z,22.17
2018-12-20T13:27:32.821Z,26.90
2018-12-20T13:30:00.331Z,19.97
2018-12-20T13:32:27.902Z,24.33
2018-12-20T13:34:55.413Z,26.93
2018-12-20T13:37:22.918Z,22.93
2018-12-20T13:39:50.446Z,21.23
2018-12-20T13:42:17.969Z,27.87
2018-12-20T13:44:45.494Z,22.37
2018-12-20T13:47:13.094Z,24.77
2018-12-20T13:49:40.616Z,24.00
2018-12-20T13:52:08.198Z,28.40
2018-12-20T13:54:35.749Z,29.57
2018-12-20T13:57:03.302Z,26.60
2018-12-20T13:59:30.849Z,23.70
2018-12-20T14:01:58.934Z,20.70
2018-12-20T14:04:26.526Z,25.23
2018-12-20T14:06:54.159Z,19.40
2018-12-20T14:09:21.682Z,27.03
2018-12-20T14:11:49.267Z,22.67
2018-12-20T14:14:16.848Z,22.80
2018-12-20T14:16:44.420Z,19.90
2018-12-20T14:19:11.948Z,25.97
2018-12-20T14:21:39.539Z,26.30
2018-12-20T14:24:07.190Z,24.40
2018-12-20T14:26:34.704Z,22.53
2018-12-20T14:29:02.211Z,19.87
2018-12-20T14:31:29.749Z,22.63
2018-12-20T14:33:57.377Z,20.37
2018-12-20T14:36:24.932Z,21.07
2018-12-20T14:38:52.558Z,21.40
2018-12-20T14:41:20.059Z,22.47
2018-12-20T14:43:47.652Z,19.47
2018-12-20T14:46:15.312Z,20.33
2018-12-20T14:48:42.952Z,21.57
2018-12-20T14:51:10.536Z,23.07
2018-12-20T14:53:38.166Z,21.87
2018-12-20T14:56:05.716Z,23.07
2018-12-20T14:58:33.217Z,19.23
2018-12-20T15:01:00.777Z,24.03
2018-12-20T15:03:28.288Z,26.60
2018-12-20T15:05:55.898Z,21.43
2018-12-20T15:08:23.400Z,25.43
2018-12-20T15:10:50.957Z,21.73
2018-12-20T15:13:18.472Z,22.07
2018-12-20T15:15:46.031Z,21.53
2018-12-20T15:18:13.594Z,25.27
2018-12-20T15:20:41.122Z,18.00
2018-12-20T15:23:08.714Z,21.23
2018-12-20T15:25:36.481Z,17.30
2018-12-20T15:28:04.402Z,22.03
2018-12-20T15:30:32.046Z,26.40
2018-12-20T15:32:59.674Z,24.00
2018-12-20T15:35:27.229Z,21.20
2018-12-20T15:37:54.794Z,23.83
2018-12-20T15:40:22.376Z,20.53
2018-12-20T15:42:49.909Z,23.70
2018-12-20T15:45:17.469Z,19.83
2018-12-20T15:47:45.030Z,27.97
2018-12-20T15:50:12.563Z,23.77
2018-12-20T15:52:40.081Z,23.87
2018-12-20T15:55:07.714Z,26.20
2018-12-20T15:57:35.377Z,23.33
2018-12-20T16:00:03.035Z,21.90
2018-12-20T16:02:30.532Z,29.50
2018-12-20T16:04:58.767Z,21.30
2018-12-20T16:07:30.746Z,20.73
2018-12-20T16:09:58.330Z,26.00
2018-12-20T16:12:26.980Z,24.90
2018-12-20T16:14:54.481Z,24.97
2018-12-20T16:17:22.099Z,26.83
2018-12-20T16:19:49.658Z,23.03
2018-12-20T16:22:17.226Z,26.20
2018-12-20T16:24:44.885Z,27.57
2018-12-20T16:27:12.466Z,23.73
2018-12-20T16:29:40.016Z,29.43
2018-12-20T16:32:07.786Z,30.73
2018-12-20T16:34:35.361Z,33.47
2018-12-20T16:37:02.993Z,25.90
2018-12-20T16:39:30.576Z,24.43
2018-12-20T16:41:58.177Z,23.60
2018-12-20T16:44:25.668Z,26.20
2018-12-20T16:46:53.209Z,25.30
2018-12-20T16:49:20.798Z,27.90
2018-12-20T16:51:48.355Z,21.73
2018-12-20T16:54:15.947Z,24.90
2018-12-20T16:56:43.466Z,22.90
2018-12-20T16:59:11.033Z,22.00
2018-12-20T17:01:38.590Z,20.73
2018-12-20T17:04:06.176Z,23.93
2018-12-20T17:06:33.815Z,22.63
2018-12-20T17:09:01.410Z,19.67
2018-12-20T17:11:28.946Z,19.03
2018-12-20T17:13:56.602Z,21.63
2018-12-20T17:16:24.289Z,24.00
2018-12-20T17:18:51.821Z,20.73
2018-12-20T17:21:19.379Z,27.20
2018-12-20T17:23:46.977Z,22.10
2018-12-20T17:26:14.614Z,21.97
2018-12-20T17:28:42.129Z,21.70
2018-12-20T17:31:09.646Z,22.93
2018-12-20T17:33:37.169Z,17.73
2018-12-20T17:36:04.754Z,14.87
2018-12-20T17:38:32.430Z,19.37
2018-12-20T17:40:59.985Z,19.00
2018-12-20T17:43:27.517Z,19.97
2018-12-20T17:45:55.046Z,17.80
2018-12-20T17:48:29.077Z,21.77
2018-12-20T17:50:52.218Z,18.20
2018-12-20T17:53:19.809Z,19.40
2018-12-20T17:55:47.359Z,17.73
2018-12-20T17:58:14.871Z,18.80
2018-12-20T18:00:42.423Z,22.27
2018-12-20T18:03:09.947Z,19.73
2018-12-20T18:05:37.510Z,20.83
2018-12-20T18:08:05.049Z,15.67
2018-12-20T18:10:32.566Z,19.30
2018-12-20T18:13:00.187Z,14.57
2018-12-20T18:15:27.686Z,16.87
2018-12-20T18:17:55.328Z,19.83
2018-12-20T18:20:22.834Z,17.77
2018-12-20T18:22:50.362Z,18.80
2018-12-20T18:25:17.856Z,19.73
2018-12-20T18:27:45.369Z,16.83
2018-12-20T18:30:12.875Z,14.90
2018-12-20T18:32:40.436Z,16.23
2018-12-20T18:35:07.946Z,15.23
2018-12-20T18:37:36.035Z,20.20
2018-12-20T18:40:04.563Z,15.00
2018-12-20T18:42:32.142Z,17.00
2018-12-20T18:44:59.699Z,19.87
2018-12-20T18:47:27.236Z,19.20
2018-12-20T18:49:54.830Z,18.17
2018-12-20T18:52:22.344Z,20.17
2018-12-20T18:54:49.890Z,13.67
2018-12-20T18:57:17.451Z,19.27
2018-12-20T18:59:45.052Z,14.63
2018-12-20T19:02:12.611Z,16.27
2018-12-20T19:04:40.145Z,24.60
2018-12-20T19:07:07.664Z,16.93
2018-12-20T19:09:35.206Z,21.53
2018-12-20T19:12:02.862Z,15.30
2018-12-20T19:14:30.410Z,15.47
2018-12-20T19:16:57.909Z,14.63
2018-12-20T19:19:25.542Z,16.57
2018-12-20T19:21:53.054Z,18.30
2018-12-20T19:24:20.581Z,13.57
2018-12-20T19:26:48.128Z,16.03
2018-12-20T19:29:15.638Z,14.47
2018-12-20T19:31:43.160Z,16.73
2018-12-20T19:34:10.691Z,12.93
2018-12-20T19:36:38.192Z,16.93
2018-12-20T19:39:08.886Z,18.03
2018-12-20T19:41:36.440Z,14.60
2018-12-20T19:44:04.102Z,11.87
2018-12-20T19:46:31.611Z,17.87
2018-12-20T19:48:59.223Z,13.90
2018-12-20T19:51:26.795Z,16.60
2018-12-20T19:53:54.342Z,14.57
2018-12-20T19:56:21.922Z,11.40
2018-12-20T19:58:49.430Z,11.50
2018-12-20T20:01:16.941Z,16.90
2018-12-20T20:03:44.520Z,18.27
2018-12-20T20:06:12.097Z,12.93
2018-12-20T20:08:39.712Z,18.37
2018-12-20T20:11:07.222Z,12.50
2018-12-20T20:13:34.854Z,17.30
2018-12-20T20:16:02.394Z,14.67
2018-12-20T20:18:29.948Z,13.57
2018-12-20T20:20:57.539Z,16.77
2018-12-20T20:23:25.079Z,12.50
2018-12-20T20:25:52.635Z,11.03
2018-12-20T20:28:20.144Z,12.87
2018-12-20T20:30:47.679Z,14.73
2018-12-20T20:33:15.309Z,12.87
2018-12-20T20:35:43.249Z,12.67
2018-12-20T20:38:10.772Z,12.57
2018-12-20T20:40:38.290Z,16.23
2018-12-20T20:43:05.789Z,12.30
2018-12-20T20:45:33.868Z,12.33
2018-12-20T20:48:01.431Z,12.00
2018-12-20T20:50:28.975Z,11.33
2018-12-20T20:52:56.604Z,17.03
2018-12-20T20:55:24.180Z,10.33
2018-12-20T20:57:51.695Z,12.27
2018-12-20T21:00:19.226Z,13.97
2018-12-20T21:02:46.794Z,11.17
2018-12-20T21:05:14.596Z,13.67
2018-12-20T21:07:42.181Z,12.00
2018-12-20T21:10:09.776Z,12.37
2018-12-20T21:12:37.309Z,10.00
2018-12-20T21:15:07.119Z,14.70
2018-12-20T21:17:34.667Z,14.83
2018-12-20T21:20:02.232Z,16.50
2018-12-20T21:22:29.732Z,13.67
2018-12-20T21:24:57.242Z,13.70
2018-12-20T21:27:24.801Z,14.03
2018-12-20T21:29:52.418Z,11.27
2018-12-20T21:32:19.952Z,10.73
2018-12-20T21:34:47.510Z,10.80
2018-12-20T21:37:15.580Z,11.50
2018-12-20T21:39:43.137Z,16.17
2018-12-20T21:42:10.644Z,8.37
2018-12-20T21:44:38.171Z,14.90
2018-12-20T21:47:05.678Z,12.77
2018-12-20T21:49:33.254Z,10.43
2018-12-20T21:52:01.685Z,10.17
2018-12-20T21:54:29.398Z,9.87
2018-12-20T21:56:56.930Z,10.23
2018-12-20T21:59:24.440Z,12.23
2018-12-20T22:01:52.209Z,10.60
2018-12-20T22:04:20.209Z,11.10
2018-12-20T22:06:48.048Z,8.60
2018-12-20T22:09:15.695Z,9.60
2018-12-20T22:11:43.200Z,10.37
2018-12-20T22:14:10.728Z,9.77
2018-12-20T22:16:38.460Z,10.23
2018-12-20T22:19:06.306Z,12.87
2018-12-20T22:21:34.029Z,10.87
2018-12-20T22:24:01.556Z,12.43
2018-12-20T22:26:29.064Z,8.37
2018-12-20T22:28:56.769Z,6.30
2018-12-20T22:31:24.271Z,8.53
2018-12-20T22:33:52.207Z,9.17
2018-12-20T22:36:19.733Z,13.87
2018-12-20T22:38:47.318Z,9.20
2018-12-20T22:41:15.094Z,9.90
2018-12-20T22:43:42.642Z,11.47
2018-12-20T22:46:11.220Z,8.33
2018-12-20T22:48:38.882Z,8.50
2018-12-20T22:51:06.391Z,10.23
2018-12-20T22:53:33.903Z,14.03
2018-12-20T22:56:01.495Z,10.37
2018-12-20T22:58:29.026Z,10.33
2018-12-20T23:00:56.569Z,9.25
2018-12-20T23:03:24.171Z,10.57
2018-12-20T23:05:51.739Z,6.77
2018-12-20T23:08:19.300Z,9.40
2018-12-20T23:10:47.137Z,7.87
2018-12-20T23:13:14.793Z,7.67
2018-12-20T23:15:42.361Z,8.70
2018-12-20T23:18:09.866Z,7.40
2018-12-20T23:20:37.375Z,7.93
2018-12-20T23:23:04.966Z,7.13
2018-12-20T23:25:32.603Z,10.77
2018-12-20T23:28:00.684Z,9.73
2018-12-20T23:30:28.335Z,11.30
2018-12-20T23:32:55.886Z,6.63
2018-12-20T23:35:23.454Z,7.60
2018-12-20T23:37:50.944Z,5.60
2018-12-20T23:40:18.489Z,9.17
2018-12-20T23:42:46.000Z,7.33
2018-12-20T23:45:13.587Z,13.23
2018-12-20T23:47:41.148Z,10.87
2018-12-20T23:50:08.682Z,7.30
2018-12-20T23:52:36.270Z,8.87
2018-12-20T23:55:04.439Z,8.50
2018-12-20T23:57:32.010Z,6.57
2018-12-20T23:59:59.531Z,7.50
